sensor_id;sensor_type;location;lat;lon;timestamp;P1;durP1;ratioP1;P2;durP2;ratioP2
8895;SDS011;4484;48.928;10.066;2023-07-31T00:01:43;3.00;;;1.07;;
8895;SDS011;4484;48.928;10.066;2023-07-31T00:04:10;5.63;;;1.53;;
8895;SDS011;4484;48.928;10.066;2023-07-31T00:06:37;2.07;;;1.00;;
8895;SDS011;4484;48.928;10.066;2023-07-31T00:09:04;4.97;;;1.30;;
8895;SDS011;4484;48.928;10.066;2023-07-31T00:11:31;3.77;;;1.10;;
8895;SDS011;4484;48.928;10.066;2023-07-31T00:13:58;2.60;;;1.10;;
8895;SDS011;4484;48.928;10.066;2023-07-31T00:16:25;4.40;;;1.30;;
8895;SDS011;4484;48.928;10.066;2023-07-31T00:18:52;1.30;;;0.87;;
8895;SDS011;4484;48.928;10.066;2023-07-31T00:21:19;2.10;;;1.00;;
8895;SDS011;4484;48.928;10.066;2023-07-31T00:23:45;1.60;;;0.93;;
8895;SDS011;4484;48.928;10.066;2023-07-31T00:26:12;1.90;;;0.90;;
8895;SDS011;4484;48.928;10.066;2023-07-31T00:28:39;3.07;;;1.20;;
8895;SDS011;4484;48.928;10.066;2023-07-31T00:31:06;3.83;;;1.27;;
8895;SDS011;4484;48.928;10.066;2023-07-31T00:33:34;1.37;;;1.00;;
8895;SDS011;4484;48.928;10.066;2023-07-31T00:36:02;2.00;;;0.87;;
8895;SDS011;4484;48.928;10.066;2023-07-31T00:38:29;1.63;;;1.17;;
8895;SDS011;4484;48.928;10.066;2023-07-31T00:40:56;1.93;;;1.00;;
8895;SDS011;4484;48.928;10.066;2023-07-31T00:43:23;2.57;;;1.27;;
8895;SDS011;4484;48.928;10.066;2023-07-31T00:45:50;1.70;;;0.90;;
8895;SDS011;4484;48.928;10.066;2023-07-31T00:48:17;4.17;;;1.50;;
8895;SDS011;4484;48.928;10.066;2023-07-31T00:50:44;3.13;;;1.20;;
8895;SDS011;4484;48.928;10.066;2023-07-31T00:53:11;2.67;;;1.20;;
8895;SDS011;4484;48.928;10.066;2023-07-31T00:55:39;4.13;;;1.10;;
8895;SDS011;4484;48.928;10.066;2023-07-31T00:58:06;2.57;;;1.07;;
8895;SDS011;4484;48.928;10.066;2023-07-31T01:00:33;1.73;;;1.10;;
8895;SDS011;4484;48.928;10.066;2023-07-31T01:03:00;5.47;;;1.50;;
8895;SDS011;4484;48.928;10.066;2023-07-31T01:05:33;1.30;;;1.00;;
8895;SDS011;4484;48.928;10.066;2023-07-31T01:08:33;2.13;;;1.20;;
8895;SDS011;4484;48.928;10.066;2023-07-31T01:11:15;2.10;;;0.93;;
8895;SDS011;4484;48.928;10.066;2023-07-31T01:13:47;6.40;;;1.50;;
8895;SDS011;4484;48.928;10.066;2023-07-31T01:16:15;1.43;;;0.83;;
8895;SDS011;4484;48.928;10.066;2023-07-31T01:18:41;2.17;;;1.03;;
8895;SDS011;4484;48.928;10.066;2023-07-31T01:24:18;4.37;;;1.10;;
8895;SDS011;4484;48.928;10.066;2023-07-31T01:27:09;3.67;;;1.30;;
8895;SDS011;4484;48.928;10.066;2023-07-31T01:32:12;2.57;;;1.10;;
8895;SDS011;4484;48.928;10.066;2023-07-31T01:34:40;4.00;;;1.33;;
8895;SDS011;4484;48.928;10.066;2023-07-31T01:37:08;2.83;;;1.33;;
8895;SDS011;4484;48.928;10.066;2023-07-31T01:39:35;1.60;;;1.10;;
8895;SDS011;4484;48.928;10.066;2023-07-31T01:42:02;3.60;;;1.20;;
8895;SDS011;4484;48.928;10.066;2023-07-31T01:44:29;0.90;;;0.80;;
8895;SDS011;4484;48.928;10.066;2023-07-31T01:46:57;2.57;;;0.93;;
8895;SDS011;4484;48.928;10.066;2023-07-31T01:49:26;3.80;;;1.10;;
8895;SDS011;4484;48.928;10.066;2023-07-31T01:51:53;1.50;;;1.03;;
8895;SDS011;4484;48.928;10.066;2023-07-31T01:54:21;1.03;;;0.90;;
8895;SDS011;4484;48.928;10.066;2023-07-31T01:56:48;1.10;;;0.67;;
8895;SDS011;4484;48.928;10.066;2023-07-31T01:59:14;1.67;;;0.90;;
8895;SDS011;4484;48.928;10.066;2023-07-31T02:01:41;2.20;;;1.00;;
8895;SDS011;4484;48.928;10.066;2023-07-31T02:04:08;1.80;;;0.90;;
8895;SDS011;4484;48.928;10.066;2023-07-31T02:06:36;1.40;;;0.90;;
8895;SDS011;4484;48.928;10.066;2023-07-31T02:09:05;2.20;;;1.27;;
8895;SDS011;4484;48.928;10.066;2023-07-31T02:11:32;1.50;;;0.90;;
8895;SDS011;4484;48.928;10.066;2023-07-31T02:13:58;0.83;;;0.80;;
8895;SDS011;4484;48.928;10.066;2023-07-31T02:16:25;1.10;;;0.90;;
8895;SDS011;4484;48.928;10.066;2023-07-31T02:18:52;3.10;;;1.20;;
8895;SDS011;4484;48.928;10.066;2023-07-31T02:21:19;2.07;;;1.00;;
8895;SDS011;4484;48.928;10.066;2023-07-31T02:23:46;1.70;;;1.13;;
8895;SDS011;4484;48.928;10.066;2023-07-31T02:26:12;1.60;;;1.10;;
8895;SDS011;4484;48.928;10.066;2023-07-31T02:28:40;5.03;;;1.10;;
8895;SDS011;4484;48.928;10.066;2023-07-31T02:31:10;2.87;;;1.37;;
8895;SDS011;4484;48.928;10.066;2023-07-31T02:33:38;4.20;;;1.27;;
8895;SDS011;4484;48.928;10.066;2023-07-31T02:36:05;3.17;;;1.23;;
8895;SDS011;4484;48.928;10.066;2023-07-31T02:38:32;4.67;;;1.30;;
8895;SDS011;4484;48.928;10.066;2023-07-31T02:40:59;1.70;;;1.20;;
8895;SDS011;4484;48.928;10.066;2023-07-31T02:43:26;2.13;;;1.30;;
8895;SDS011;4484;48.928;10.066;2023-07-31T02:45:53;2.43;;;1.27;;
8895;SDS011;4484;48.928;10.066;2023-07-31T02:48:20;4.60;;;1.47;;
8895;SDS011;4484;48.928;10.066;2023-07-31T02:50:47;5.67;;;1.77;;
8895;SDS011;4484;48.928;10.066;2023-07-31T02:53:14;3.43;;;1.53;;
8895;SDS011;4484;48.928;10.066;2023-07-31T02:55:41;3.53;;;1.60;;
8895;SDS011;4484;48.928;10.066;2023-07-31T02:58:08;3.80;;;1.70;;
8895;SDS011;4484;48.928;10.066;2023-07-31T03:00:35;3.23;;;1.70;;
8895;SDS011;4484;48.928;10.066;2023-07-31T03:03:01;5.53;;;2.73;;
8895;SDS011;4484;48.928;10.066;2023-07-31T03:05:28;3.50;;;2.90;;
8895;SDS011;4484;48.928;10.066;2023-07-31T03:07:55;3.67;;;2.37;;
8895;SDS011;4484;48.928;10.066;2023-07-31T03:10:22;3.97;;;2.47;;
8895;SDS011;4484;48.928;10.066;2023-07-31T03:12:49;2.83;;;2.07;;
8895;SDS011;4484;48.928;10.066;2023-07-31T03:15:16;3.63;;;2.53;;
8895;SDS011;4484;48.928;10.066;2023-07-31T03:17:43;4.30;;;1.90;;
8895;SDS011;4484;48.928;10.066;2023-07-31T03:20:10;3.87;;;1.70;;
8895;SDS011;4484;48.928;10.066;2023-07-31T03:22:37;1.47;;;1.30;;
8895;SDS011;4484;48.928;10.066;2023-07-31T03:25:04;2.00;;;1.40;;
8895;SDS011;4484;48.928;10.066;2023-07-31T03:27:31;3.27;;;1.30;;
8895;SDS011;4484;48.928;10.066;2023-07-31T03:29:58;2.03;;;1.30;;
8895;SDS011;4484;48.928;10.066;2023-07-31T03:32:28;1.97;;;1.40;;
8895;SDS011;4484;48.928;10.066;2023-07-31T03:34:55;4.10;;;1.53;;
8895;SDS011;4484;48.928;10.066;2023-07-31T03:37:22;1.23;;;0.97;;
8895;SDS011;4484;48.928;10.066;2023-07-31T03:39:49;2.03;;;1.13;;
8895;SDS011;4484;48.928;10.066;2023-07-31T03:42:16;1.30;;;0.97;;
8895;SDS011;4484;48.928;10.066;2023-07-31T03:44:42;2.43;;;1.10;;
8895;SDS011;4484;48.928;10.066;2023-07-31T03:47:09;1.20;;;0.80;;
8895;SDS011;4484;48.928;10.066;2023-07-31T03:49:36;2.20;;;1.10;;
8895;SDS011;4484;48.928;10.066;2023-07-31T03:52:03;4.80;;;1.23;;
8895;SDS011;4484;48.928;10.066;2023-07-31T03:54:30;1.13;;;0.87;;
8895;SDS011;4484;48.928;10.066;2023-07-31T03:56:57;2.80;;;1.20;;
8895;SDS011;4484;48.928;10.066;2023-07-31T03:59:24;2.23;;;1.30;;
8895;SDS011;4484;48.928;10.066;2023-07-31T04:01:50;1.13;;;1.03;;
8895;SDS011;4484;48.928;10.066;2023-07-31T04:04:17;2.23;;;1.30;;
8895;SDS011;4484;48.928;10.066;2023-07-31T04:06:44;1.37;;;0.87;;
8895;SDS011;4484;48.928;10.066;2023-07-31T04:09:11;1.13;;;0.97;;
8895;SDS011;4484;48.928;10.066;2023-07-31T04:11:38;1.83;;;1.03;;
8895;SDS011;4484;48.928;10.066;2023-07-31T04:14:05;1.53;;;1.17;;
8895;SDS011;4484;48.928;10.066;2023-07-31T04:16:32;2.80;;;1.10;;
8895;SDS011;4484;48.928;10.066;2023-07-31T04:18:59;3.63;;;1.20;;
8895;SDS011;4484;48.928;10.066;2023-07-31T04:21:26;1.70;;;1.23;;
8895;SDS011;4484;48.928;10.066;2023-07-31T04:23:52;2.20;;;1.33;;
8895;SDS011;4484;48.928;10.066;2023-07-31T04:26:22;2.10;;;1.13;;
8895;SDS011;4484;48.928;10.066;2023-07-31T04:28:49;1.37;;;0.90;;
8895;SDS011;4484;48.928;10.066;2023-07-31T04:31:16;4.17;;;1.30;;
8895;SDS011;4484;48.928;10.066;2023-07-31T04:33:42;2.43;;;1.20;;
8895;SDS011;4484;48.928;10.066;2023-07-31T04:36:09;2.67;;;1.50;;
8895;SDS011;4484;48.928;10.066;2023-07-31T04:38:36;4.93;;;1.40;;
8895;SDS011;4484;48.928;10.066;2023-07-31T04:41:03;4.83;;;1.40;;
8895;SDS011;4484;48.928;10.066;2023-07-31T04:43:31;3.23;;;1.30;;
8895;SDS011;4484;48.928;10.066;2023-07-31T04:45:58;4.47;;;1.33;;
8895;SDS011;4484;48.928;10.066;2023-07-31T04:48:25;1.27;;;1.13;;
8895;SDS011;4484;48.928;10.066;2023-07-31T04:50:52;3.80;;;1.40;;
8895;SDS011;4484;48.928;10.066;2023-07-31T04:53:19;3.07;;;1.40;;
8895;SDS011;4484;48.928;10.066;2023-07-31T04:55:45;5.27;;;1.57;;
8895;SDS011;4484;48.928;10.066;2023-07-31T04:58:12;3.87;;;1.30;;
8895;SDS011;4484;48.928;10.066;2023-07-31T05:00:39;1.93;;;1.00;;
8895;SDS011;4484;48.928;10.066;2023-07-31T05:03:06;5.30;;;1.57;;
8895;SDS011;4484;48.928;10.066;2023-07-31T05:05:33;3.27;;;1.40;;
8895;SDS011;4484;48.928;10.066;2023-07-31T05:08:00;4.83;;;1.40;;
8895;SDS011;4484;48.928;10.066;2023-07-31T05:10:27;5.23;;;1.20;;
8895;SDS011;4484;48.928;10.066;2023-07-31T05:12:54;1.97;;;1.00;;
8895;SDS011;4484;48.928;10.066;2023-07-31T05:15:21;3.63;;;1.10;;
8895;SDS011;4484;48.928;10.066;2023-07-31T05:17:47;3.77;;;1.40;;
8895;SDS011;4484;48.928;10.066;2023-07-31T05:20:14;2.37;;;1.30;;
8895;SDS011;4484;48.928;10.066;2023-07-31T05:22:41;4.53;;;1.40;;
8895;SDS011;4484;48.928;10.066;2023-07-31T05:25:08;2.90;;;1.80;;
8895;SDS011;4484;48.928;10.066;2023-07-31T05:27:35;4.60;;;2.53;;
8895;SDS011;4484;48.928;10.066;2023-07-31T05:30:02;3.40;;;1.80;;
8895;SDS011;4484;48.928;10.066;2023-07-31T05:32:29;11.37;;;6.27;;
8895;SDS011;4484;48.928;10.066;2023-07-31T05:34:56;44.77;;;21.63;;
8895;SDS011;4484;48.928;10.066;2023-07-31T05:37:23;32.63;;;17.20;;
8895;SDS011;4484;48.928;10.066;2023-07-31T05:39:50;33.00;;;17.50;;
8895;SDS011;4484;48.928;10.066;2023-07-31T05:42:18;32.77;;;17.00;;
8895;SDS011;4484;48.928;10.066;2023-07-31T05:44:45;39.67;;;17.83;;
8895;SDS011;4484;48.928;10.066;2023-07-31T05:47:11;26.37;;;10.93;;
8895;SDS011;4484;48.928;10.066;2023-07-31T05:49:38;26.40;;;13.53;;
8895;SDS011;4484;48.928;10.066;2023-07-31T05:52:05;46.60;;;21.93;;
8895;SDS011;4484;48.928;10.066;2023-07-31T05:54:32;41.80;;;23.33;;
8895;SDS011;4484;48.928;10.066;2023-07-31T05:57:00;10.17;;;5.80;;
8895;SDS011;4484;48.928;10.066;2023-07-31T05:59:26;4.10;;;1.80;;
8895;SDS011;4484;48.928;10.066;2023-07-31T06:01:53;4.23;;;1.47;;
8895;SDS011;4484;48.928;10.066;2023-07-31T06:04:20;3.13;;;1.77;;
8895;SDS011;4484;48.928;10.066;2023-07-31T06:06:50;6.23;;;1.50;;
8895;SDS011;4484;48.928;10.066;2023-07-31T06:09:18;2.17;;;1.20;;
8895;SDS011;4484;48.928;10.066;2023-07-31T06:11:44;2.67;;;1.27;;
8895;SDS011;4484;48.928;10.066;2023-07-31T06:14:11;2.30;;;1.27;;
8895;SDS011;4484;48.928;10.066;2023-07-31T06:16:38;2.70;;;1.47;;
8895;SDS011;4484;48.928;10.066;2023-07-31T06:19:05;2.77;;;1.27;;
8895;SDS011;4484;48.928;10.066;2023-07-31T06:21:33;2.27;;;1.20;;
8895;SDS011;4484;48.928;10.066;2023-07-31T06:24:00;3.23;;;1.40;;
8895;SDS011;4484;48.928;10.066;2023-07-31T06:26:27;3.17;;;1.40;;
8895;SDS011;4484;48.928;10.066;2023-07-31T06:28:53;2.40;;;1.13;;
8895;SDS011;4484;48.928;10.066;2023-07-31T06:31:20;3.73;;;1.30;;
8895;SDS011;4484;48.928;10.066;2023-07-31T06:33:50;4.37;;;1.60;;
8895;SDS011;4484;48.928;10.066;2023-07-31T06:36:18;2.10;;;1.40;;
8895;SDS011;4484;48.928;10.066;2023-07-31T06:38:45;3.43;;;1.60;;
8895;SDS011;4484;48.928;10.066;2023-07-31T06:41:12;4.13;;;1.80;;
8895;SDS011;4484;48.928;10.066;2023-07-31T06:43:38;3.13;;;1.40;;
8895;SDS011;4484;48.928;10.066;2023-07-31T06:46:06;3.53;;;1.20;;
8895;SDS011;4484;48.928;10.066;2023-07-31T06:48:33;2.83;;;1.50;;
8895;SDS011;4484;48.928;10.066;2023-07-31T06:51:00;2.90;;;1.37;;
8895;SDS011;4484;48.928;10.066;2023-07-31T06:53:28;2.63;;;1.00;;
8895;SDS011;4484;48.928;10.066;2023-07-31T06:55:55;2.80;;;1.17;;
8895;SDS011;4484;48.928;10.066;2023-07-31T06:58:22;4.13;;;1.10;;
8895;SDS011;4484;48.928;10.066;2023-07-31T07:00:49;3.83;;;1.20;;
8895;SDS011;4484;48.928;10.066;2023-07-31T07:03:18;2.27;;;1.20;;
8895;SDS011;4484;48.928;10.066;2023-07-31T07:05:45;4.30;;;1.37;;
8895;SDS011;4484;48.928;10.066;2023-07-31T07:08:12;2.47;;;1.20;;
8895;SDS011;4484;48.928;10.066;2023-07-31T07:10:39;6.13;;;1.33;;
8895;SDS011;4484;48.928;10.066;2023-07-31T07:13:05;1.87;;;1.30;;
8895;SDS011;4484;48.928;10.066;2023-07-31T07:15:32;2.73;;;1.50;;
8895;SDS011;4484;48.928;10.066;2023-07-31T07:17:59;3.20;;;1.30;;
8895;SDS011;4484;48.928;10.066;2023-07-31T07:20:26;3.77;;;1.60;;
8895;SDS011;4484;48.928;10.066;2023-07-31T07:22:53;2.13;;;1.30;;
8895;SDS011;4484;48.928;10.066;2023-07-31T07:25:20;5.93;;;1.30;;
8895;SDS011;4484;48.928;10.066;2023-07-31T07:27:47;5.43;;;1.30;;
8895;SDS011;4484;48.928;10.066;2023-07-31T07:30:14;4.67;;;1.40;;
8895;SDS011;4484;48.928;10.066;2023-07-31T07:32:41;5.07;;;1.60;;
8895;SDS011;4484;48.928;10.066;2023-07-31T07:35:08;3.93;;;1.53;;
8895;SDS011;4484;48.928;10.066;2023-07-31T07:37:35;5.57;;;1.20;;
8895;SDS011;4484;48.928;10.066;2023-07-31T07:40:02;4.60;;;1.50;;
8895;SDS011;4484;48.928;10.066;2023-07-31T07:42:29;4.13;;;1.53;;
8895;SDS011;4484;48.928;10.066;2023-07-31T07:44:55;5.17;;;1.50;;
8895;SDS011;4484;48.928;10.066;2023-07-31T07:47:22;1.40;;;1.00;;
8895;SDS011;4484;48.928;10.066;2023-07-31T07:49:49;3.10;;;1.43;;
8895;SDS011;4484;48.928;10.066;2023-07-31T07:52:18;4.77;;;1.30;;
8895;SDS011;4484;48.928;10.066;2023-07-31T07:54:45;4.30;;;1.40;;
8895;SDS011;4484;48.928;10.066;2023-07-31T07:57:12;2.10;;;1.10;;
8895;SDS011;4484;48.928;10.066;2023-07-31T07:59:40;3.67;;;1.50;;
8895;SDS011;4484;48.928;10.066;2023-07-31T08:02:07;6.40;;;1.50;;
8895;SDS011;4484;48.928;10.066;2023-07-31T08:04:34;3.57;;;1.40;;
8895;SDS011;4484;48.928;10.066;2023-07-31T08:07:01;5.50;;;1.70;;
8895;SDS011;4484;48.928;10.066;2023-07-31T08:09:27;3.57;;;1.33;;
8895;SDS011;4484;48.928;10.066;2023-07-31T08:11:55;3.63;;;1.43;;
8895;SDS011;4484;48.928;10.066;2023-07-31T08:14:28;3.03;;;1.60;;
8895;SDS011;4484;48.928;10.066;2023-07-31T08:16:58;4.80;;;1.90;;
8895;SDS011;4484;48.928;10.066;2023-07-31T08:19:25;1.87;;;1.20;;
8895;SDS011;4484;48.928;10.066;2023-07-31T08:21:52;3.37;;;1.60;;
8895;SDS011;4484;48.928;10.066;2023-07-31T08:24:23;4.83;;;1.70;;
8895;SDS011;4484;48.928;10.066;2023-07-31T08:26:50;2.83;;;1.43;;
8895;SDS011;4484;48.928;10.066;2023-07-31T08:29:17;3.87;;;2.07;;
8895;SDS011;4484;48.928;10.066;2023-07-31T08:31:43;9.03;;;1.70;;
8895;SDS011;4484;48.928;10.066;2023-07-31T08:34:10;4.93;;;1.57;;
8895;SDS011;4484;48.928;10.066;2023-07-31T08:36:37;6.78;;;2.20;;
8895;SDS011;4484;48.928;10.066;2023-07-31T08:39:04;5.63;;;1.85;;
8895;SDS011;4484;48.928;10.066;2023-07-31T08:41:31;6.93;;;2.00;;
8895;SDS011;4484;48.928;10.066;2023-07-31T08:44:07;4.63;;;1.95;;
8895;SDS011;4484;48.928;10.066;2023-07-31T08:46:34;2.92;;;1.85;;
8895;SDS011;4484;48.928;10.066;2023-07-31T08:49:03;6.95;;;1.75;;
8895;SDS011;4484;48.928;10.066;2023-07-31T08:51:33;4.15;;;2.17;;
8895;SDS011;4484;48.928;10.066;2023-07-31T08:54:01;6.13;;;1.85;;
8895;SDS011;4484;48.928;10.066;2023-07-31T08:56:31;3.28;;;1.85;;
8895;SDS011;4484;48.928;10.066;2023-07-31T08:58:59;2.97;;;1.88;;
8895;SDS011;4484;48.928;10.066;2023-07-31T09:01:28;6.75;;;2.08;;
8895;SDS011;4484;48.928;10.066;2023-07-31T09:03:59;2.70;;;1.95;;
8895;SDS011;4484;48.928;10.066;2023-07-31T09:06:28;4.00;;;1.73;;
8895;SDS011;4484;48.928;10.066;2023-07-31T09:08:56;3.47;;;1.90;;
8895;SDS011;4484;48.928;10.066;2023-07-31T09:11:23;3.47;;;2.20;;
8895;SDS011;4484;48.928;10.066;2023-07-31T09:13:51;5.82;;;2.00;;
8895;SDS011;4484;48.928;10.066;2023-07-31T09:16:26;4.10;;;1.88;;
8895;SDS011;4484;48.928;10.066;2023-07-31T09:18:58;7.82;;;2.08;;
8895;SDS011;4484;48.928;10.066;2023-07-31T09:21:28;4.63;;;1.92;;
8895;SDS011;4484;48.928;10.066;2023-07-31T09:23:55;5.90;;;1.88;;
8895;SDS011;4484;48.928;10.066;2023-07-31T09:26:32;3.63;;;1.80;;
8895;SDS011;4484;48.928;10.066;2023-07-31T09:29:00;3.92;;;2.10;;
8895;SDS011;4484;48.928;10.066;2023-07-31T09:31:37;3.95;;;1.83;;
8895;SDS011;4484;48.928;10.066;2023-07-31T09:34:07;3.88;;;1.88;;
8895;SDS011;4484;48.928;10.066;2023-07-31T09:36:44;3.88;;;2.00;;
8895;SDS011;4484;48.928;10.066;2023-07-31T09:39:12;5.70;;;1.90;;
8895;SDS011;4484;48.928;10.066;2023-07-31T09:41:42;4.35;;;2.17;;
8895;SDS011;4484;48.928;10.066;2023-07-31T09:44:11;3.55;;;1.73;;
8895;SDS011;4484;48.928;10.066;2023-07-31T09:46:42;6.82;;;2.13;;
8895;SDS011;4484;48.928;10.066;2023-07-31T09:49:10;5.93;;;1.88;;
8895;SDS011;4484;48.928;10.066;2023-07-31T09:51:38;3.80;;;2.00;;
8895;SDS011;4484;48.928;10.066;2023-07-31T09:54:12;4.97;;;2.10;;
8895;SDS011;4484;48.928;10.066;2023-07-31T09:56:47;5.60;;;2.17;;
8895;SDS011;4484;48.928;10.066;2023-07-31T09:59:15;5.10;;;2.15;;
8895;SDS011;4484;48.928;10.066;2023-07-31T10:01:48;5.32;;;2.20;;
8895;SDS011;4484;48.928;10.066;2023-07-31T10:08:28;7.72;;;2.22;;
8895;SDS011;4484;48.928;10.066;2023-07-31T10:10:58;3.00;;;1.88;;
8895;SDS011;4484;48.928;10.066;2023-07-31T10:13:27;3.65;;;2.00;;
8895;SDS011;4484;48.928;10.066;2023-07-31T10:15:56;5.25;;;1.70;;
8895;SDS011;4484;48.928;10.066;2023-07-31T10:18:26;5.43;;;2.00;;
8895;SDS011;4484;48.928;10.066;2023-07-31T10:20:54;3.03;;;1.70;;
8895;SDS011;4484;48.928;10.066;2023-07-31T10:23:22;5.65;;;2.10;;
8895;SDS011;4484;48.928;10.066;2023-07-31T10:25:51;2.45;;;1.70;;
8895;SDS011;4484;48.928;10.066;2023-07-31T10:28:20;3.80;;;2.03;;
8895;SDS011;4484;48.928;10.066;2023-07-31T10:30:48;5.03;;;1.60;;
8895;SDS011;4484;48.928;10.066;2023-07-31T10:33:17;4.68;;;2.00;;
8895;SDS011;4484;48.928;10.066;2023-07-31T10:35:49;3.72;;;1.90;;
8895;SDS011;4484;48.928;10.066;2023-07-31T10:38:19;5.70;;;2.10;;
8895;SDS011;4484;48.928;10.066;2023-07-31T10:40:50;5.75;;;2.10;;
8895;SDS011;4484;48.928;10.066;2023-07-31T10:43:26;4.18;;;2.00;;
8895;SDS011;4484;48.928;10.066;2023-07-31T10:45:53;3.88;;;2.17;;
8895;SDS011;4484;48.928;10.066;2023-07-31T10:48:20;7.63;;;1.88;;
8895;SDS011;4484;48.928;10.066;2023-07-31T10:50:50;4.85;;;2.20;;
8895;SDS011;4484;48.928;10.066;2023-07-31T10:53:25;6.63;;;2.20;;
8895;SDS011;4484;48.928;10.066;2023-07-31T10:55:53;6.22;;;2.17;;
8895;SDS011;4484;48.928;10.066;2023-07-31T10:58:24;4.72;;;1.77;;
8895;SDS011;4484;48.928;10.066;2023-07-31T11:00:55;3.65;;;1.90;;
8895;SDS011;4484;48.928;10.066;2023-07-31T11:03:25;3.03;;;1.67;;
8895;SDS011;4484;48.928;10.066;2023-07-31T11:06:08;3.88;;;2.00;;
8895;SDS011;4484;48.928;10.066;2023-07-31T11:08:40;4.18;;;2.03;;
8895;SDS011;4484;48.928;10.066;2023-07-31T11:11:10;2.95;;;1.70;;
8895;SDS011;4484;48.928;10.066;2023-07-31T11:13:45;3.75;;;1.88;;
8895;SDS011;4484;48.928;10.066;2023-07-31T11:16:17;3.22;;;1.73;;
8895;SDS011;4484;48.928;10.066;2023-07-31T11:18:46;2.30;;;1.67;;
8895;SDS011;4484;48.928;10.066;2023-07-31T11:21:15;3.03;;;1.58;;
8895;SDS011;4484;48.928;10.066;2023-07-31T11:23:50;4.47;;;1.73;;
8895;SDS011;4484;48.928;10.066;2023-07-31T11:26:19;3.42;;;1.75;;
8895;SDS011;4484;48.928;10.066;2023-07-31T11:28:47;3.25;;;1.88;;
8895;SDS011;4484;48.928;10.066;2023-07-31T11:31:14;5.57;;;2.38;;
8895;SDS011;4484;48.928;10.066;2023-07-31T11:33:42;4.32;;;1.90;;
8895;SDS011;4484;48.928;10.066;2023-07-31T11:36:18;3.42;;;1.63;;
8895;SDS011;4484;48.928;10.066;2023-07-31T11:38:47;5.50;;;1.90;;
8895;SDS011;4484;48.928;10.066;2023-07-31T11:41:15;7.55;;;2.33;;
8895;SDS011;4484;48.928;10.066;2023-07-31T11:43:45;4.70;;;1.63;;
8895;SDS011;4484;48.928;10.066;2023-07-31T11:46:14;7.50;;;2.05;;
8895;SDS011;4484;48.928;10.066;2023-07-31T11:48:41;4.30;;;1.80;;
8895;SDS011;4484;48.928;10.066;2023-07-31T11:51:10;2.13;;;1.60;;
8895;SDS011;4484;48.928;10.066;2023-07-31T11:53:43;3.83;;;2.30;;
8895;SDS011;4484;48.928;10.066;2023-07-31T11:56:13;7.35;;;1.83;;
8895;SDS011;4484;48.928;10.066;2023-07-31T11:58:42;3.22;;;2.10;;
8895;SDS011;4484;48.928;10.066;2023-07-31T12:01:15;5.32;;;2.13;;
8895;SDS011;4484;48.928;10.066;2023-07-31T12:03:45;3.88;;;2.00;;
8895;SDS011;4484;48.928;10.066;2023-07-31T12:06:13;3.10;;;1.77;;
8895;SDS011;4484;48.928;10.066;2023-07-31T12:08:40;4.75;;;2.03;;
8895;SDS011;4484;48.928;10.066;2023-07-31T12:11:08;4.75;;;2.17;;
8895;SDS011;4484;48.928;10.066;2023-07-31T12:13:39;5.82;;;1.92;;
8895;SDS011;4484;48.928;10.066;2023-07-31T12:16:06;3.22;;;2.00;;
8895;SDS011;4484;48.928;10.066;2023-07-31T12:18:34;3.58;;;2.13;;
8895;SDS011;4484;48.928;10.066;2023-07-31T12:21:07;2.83;;;2.00;;
8895;SDS011;4484;48.928;10.066;2023-07-31T12:23:35;4.15;;;1.83;;
8895;SDS011;4484;48.928;10.066;2023-07-31T12:26:07;5.03;;;2.47;;
8895;SDS011;4484;48.928;10.066;2023-07-31T12:28:45;3.63;;;1.95;;
8895;SDS011;4484;48.928;10.066;2023-07-31T12:31:21;3.15;;;1.85;;
8895;SDS011;4484;48.928;10.066;2023-07-31T12:33:49;6.45;;;2.40;;
8895;SDS011;4484;48.928;10.066;2023-07-31T12:36:18;4.70;;;2.10;;
8895;SDS011;4484;48.928;10.066;2023-07-31T12:38:49;3.53;;;2.05;;
8895;SDS011;4484;48.928;10.066;2023-07-31T12:41:17;4.43;;;2.20;;
8895;SDS011;4484;48.928;10.066;2023-07-31T12:43:44;2.95;;;1.63;;
8895;SDS011;4484;48.928;10.066;2023-07-31T12:46:12;4.70;;;2.13;;
8895;SDS011;4484;48.928;10.066;2023-07-31T12:48:39;3.53;;;2.00;;
8895;SDS011;4484;48.928;10.066;2023-07-31T12:51:07;4.65;;;2.60;;
8895;SDS011;4484;48.928;10.066;2023-07-31T12:53:34;5.93;;;2.30;;
8895;SDS011;4484;48.928;10.066;2023-07-31T12:56:01;4.07;;;2.08;;
8895;SDS011;4484;48.928;10.066;2023-07-31T12:58:28;3.38;;;2.00;;
8895;SDS011;4484;48.928;10.066;2023-07-31T13:00:56;3.92;;;1.77;;
8895;SDS011;4484;48.928;10.066;2023-07-31T13:03:22;7.72;;;2.15;;
8895;SDS011;4484;48.928;10.066;2023-07-31T13:05:50;3.67;;;2.00;;
8895;SDS011;4484;48.928;10.066;2023-07-31T13:08:18;3.22;;;2.05;;
8895;SDS011;4484;48.928;10.066;2023-07-31T13:10:45;4.78;;;1.95;;
8895;SDS011;4484;48.928;10.066;2023-07-31T13:13:12;4.18;;;2.03;;
8895;SDS011;4484;48.928;10.066;2023-07-31T13:15:39;5.88;;;2.47;;
8895;SDS011;4484;48.928;10.066;2023-07-31T13:18:06;3.28;;;2.10;;
8895;SDS011;4484;48.928;10.066;2023-07-31T13:20:33;4.70;;;2.00;;
8895;SDS011;4484;48.928;10.066;2023-07-31T13:23:00;3.85;;;2.13;;
8895;SDS011;4484;48.928;10.066;2023-07-31T13:25:27;7.25;;;2.35;;
8895;SDS011;4484;48.928;10.066;2023-07-31T13:27:54;4.28;;;2.08;;
8895;SDS011;4484;48.928;10.066;2023-07-31T13:30:22;3.78;;;2.33;;
8895;SDS011;4484;48.928;10.066;2023-07-31T13:32:49;3.63;;;2.10;;
8895;SDS011;4484;48.928;10.066;2023-07-31T13:35:16;4.30;;;2.28;;
8895;SDS011;4484;48.928;10.066;2023-07-31T13:37:43;5.22;;;2.42;;
8895;SDS011;4484;48.928;10.066;2023-07-31T13:40:09;3.63;;;1.90;;
8895;SDS011;4484;48.928;10.066;2023-07-31T13:42:37;7.78;;;2.10;;
8895;SDS011;4484;48.928;10.066;2023-07-31T13:45:04;4.18;;;2.40;;
8895;SDS011;4484;48.928;10.066;2023-07-31T13:47:33;2.53;;;2.10;;
8895;SDS011;4484;48.928;10.066;2023-07-31T13:50:01;5.53;;;2.28;;
8895;SDS011;4484;48.928;10.066;2023-07-31T13:52:28;7.10;;;2.20;;
8895;SDS011;4484;48.928;10.066;2023-07-31T13:54:55;4.65;;;2.47;;
8895;SDS011;4484;48.928;10.066;2023-07-31T13:57:21;6.05;;;2.67;;
8895;SDS011;4484;48.928;10.066;2023-07-31T13:59:50;4.57;;;2.83;;
8895;SDS011;4484;48.928;10.066;2023-07-31T14:02:17;7.40;;;2.50;;
8895;SDS011;4484;48.928;10.066;2023-07-31T14:04:44;3.95;;;2.20;;
8895;SDS011;4484;48.928;10.066;2023-07-31T14:07:11;6.38;;;2.00;;
8895;SDS011;4484;48.928;10.066;2023-07-31T14:09:37;5.30;;;2.22;;
8895;SDS011;4484;48.928;10.066;2023-07-31T14:12:04;3.15;;;2.40;;
8895;SDS011;4484;48.928;10.066;2023-07-31T14:14:32;3.63;;;2.15;;
8895;SDS011;4484;48.928;10.066;2023-07-31T14:17:00;7.07;;;2.10;;
8895;SDS011;4484;48.928;10.066;2023-07-31T14:19:28;3.60;;;1.95;;
8895;SDS011;4484;48.928;10.066;2023-07-31T14:21:57;3.92;;;2.10;;
8895;SDS011;4484;48.928;10.066;2023-07-31T14:24:36;2.35;;;2.03;;
8895;SDS011;4484;48.928;10.066;2023-07-31T14:27:03;2.88;;;1.80;;
8895;SDS011;4484;48.928;10.066;2023-07-31T14:29:31;4.43;;;1.98;;
8895;SDS011;4484;48.928;10.066;2023-07-31T14:31:57;4.13;;;2.28;;
8895;SDS011;4484;48.928;10.066;2023-07-31T14:34:26;3.40;;;2.17;;
8895;SDS011;4484;48.928;10.066;2023-07-31T14:36:52;9.23;;;2.15;;
8895;SDS011;4484;48.928;10.066;2023-07-31T14:39:19;4.70;;;2.22;;
8895;SDS011;4484;48.928;10.066;2023-07-31T14:41:46;3.58;;;1.77;;
8895;SDS011;4484;48.928;10.066;2023-07-31T14:44:14;6.20;;;2.15;;
8895;SDS011;4484;48.928;10.066;2023-07-31T14:46:41;4.15;;;2.15;;
8895;SDS011;4484;48.928;10.066;2023-07-31T14:49:09;7.05;;;2.35;;
8895;SDS011;4484;48.928;10.066;2023-07-31T14:51:35;5.78;;;2.42;;
8895;SDS011;4484;48.928;10.066;2023-07-31T14:54:02;4.15;;;2.22;;
8895;SDS011;4484;48.928;10.066;2023-07-31T14:56:29;9.55;;;2.10;;
8895;SDS011;4484;48.928;10.066;2023-07-31T14:58:56;3.55;;;1.60;;
8895;SDS011;4484;48.928;10.066;2023-07-31T15:01:23;4.88;;;2.10;;
8895;SDS011;4484;48.928;10.066;2023-07-31T15:03:51;2.72;;;2.00;;
8895;SDS011;4484;48.928;10.066;2023-07-31T15:06:18;3.63;;;2.08;;
8895;SDS011;4484;48.928;10.066;2023-07-31T15:08:44;4.15;;;2.30;;
8895;SDS011;4484;48.928;10.066;2023-07-31T15:11:11;7.22;;;2.40;;
8895;SDS011;4484;48.928;10.066;2023-07-31T15:13:39;5.22;;;2.20;;
8895;SDS011;4484;48.928;10.066;2023-07-31T15:16:06;5.30;;;2.15;;